Time;durP1;ratioP1;P1;durP2;ratioP2;P2;SDS_P1;SDS_P2;PMS_P1;PMS_P2;Temp;Humidity;BMP_temperature;BMP_pressure;BME280_temperature;BME280_humidity;BME280_pressure;Samples;Min_cycle;Max_cycle;Signal;HPM_P1;HPM_P2
2022/04/15 00:01:15;;;;;;;7.60;3.50;;;;;;;9.36;49.24;100127.69;4358332;32;34583;-76
2022/04/15 00:04:03;;;;;;;6.97;3.30;;;;;;;9.18;49.36;100114.75;4372729;32;34921;-76
2022/04/15 00:06:49;;;;;;;7.18;3.40;;;;;;;9.32;49.26;100112.97;4371278;32;34839;-77
2022/04/15 00:09:36;;;;;;;9.30;4.15;;;;;;;9.15;50.30;100113.41;4354657;32;34079;-76
2022/04/15 00:12:28;;;;;;;7.72;4.43;;;;;;;8.92;51.12;100117.75;4347695;32;34610;-76
2022/04/15 00:15:15;;;;;;;9.20;4.28;;;;;;;9.13;50.26;100117.53;4358877;32;35108;-77
2022/04/15 00:18:01;;;;;;;9.95;4.15;;;;;;;9.27;49.62;100106.72;4367504;32;34795;-77
2022/04/15 00:20:47;;;;;;;8.55;3.33;;;;;;;9.15;49.88;100109.88;4361638;32;33968;-77
2022/04/15 00:23:34;;;;;;;9.05;3.33;;;;;;;9.18;48.43;100106.56;4360086;32;34261;-77
2022/04/15 00:26:21;;;;;;;6.05;3.20;;;;;;;9.30;47.56;100106.97;4372409;32;34928;-76
2022/04/15 00:29:06;;;;;;;6.87;2.90;;;;;;;9.34;47.44;100093.53;4373743;32;35174;-77
2022/04/15 00:31:53;;;;;;;7.85;3.55;;;;;;;9.12;47.56;100100.34;4367371;32;33702;-77
2022/04/15 00:34:38;;;;;;;7.55;3.12;;;;;;;8.81;49.04;100099.03;4358914;32;35158;-76
2022/04/15 00:37:25;;;;;;;7.72;3.75;;;;;;;8.84;49.56;100101.97;4368249;32;35903;-77
2022/04/15 00:40:11;;;;;;;8.38;3.10;;;;;;;8.73;51.43;100105.91;4346999;32;34646;-77
2022/04/15 00:42:58;;;;;;;6.37;3.58;;;;;;;9.13;49.61;100091.00;4347227;32;35011;-77
2022/04/15 00:45:44;;;;;;;7.25;3.28;;;;;;;9.09;49.78;100102.84;4359236;32;35592;-76
2022/04/15 00:48:31;;;;;;;6.37;3.17;;;;;;;9.14;48.64;100094.59;4360798;32;35693;-77
2022/04/15 00:51:17;;;;;;;7.15;3.25;;;;;;;9.29;46.00;100091.66;4373497;32;34756;-77
2022/04/15 00:54:04;;;;;;;6.57;3.35;;;;;;;9.22;46.17;100088.47;4371838;32;33355;-76
2022/04/15 00:56:52;;;;;;;6.05;2.87;;;;;;;8.55;48.82;100083.66;4358762;32;35527;-76
2022/04/15 00:59:40;;;;;;;6.82;2.87;;;;;;;8.40;49.72;100083.81;4347495;32;34909;-76
2022/04/15 01:02:28;;;;;;;8.20;3.47;;;;;;;8.82;49.09;100089.72;4349906;32;33472;-76
2022/04/15 01:05:16;;;;;;;7.18;3.10;;;;;;;8.56;49.63;100082.56;4350005;32;35264;-76
2022/04/15 01:08:03;;;;;;;7.35;3.33;;;;;;;8.30;50.88;100070.19;4356044;32;34612;-77
2022/04/15 01:10:51;;;;;;;10.30;3.60;;;;;;;8.37;51.81;100078.06;4354618;32;35962;-77
2022/04/15 01:13:38;;;;;;;6.70;2.83;;;;;;;8.66;51.49;100076.19;4368408;32;34204;-77
2022/04/15 01:16:26;;;;;;;7.47;2.87;;;;;;;9.07;49.85;100075.78;4373569;32;34194;-77
2022/04/15 01:19:12;;;;;;;7.18;3.10;;;;;;;8.93;50.15;100064.72;4370016;32;34195;-76
2022/04/15 01:22:02;;;;;;;7.40;3.03;;;;;;;9.08;49.51;100068.38;4364736;32;34437;-77
2022/04/15 01:24:48;;;;;;;7.32;3.05;;;;;;;8.94;49.75;100066.38;4364393;32;34328;-77
2022/04/15 01:27:42;;;;;;;8.57;3.53;;;;;;;8.78;50.63;100064.88;4360630;32;35289;-77
2022/04/15 01:30:28;;;;;;;8.85;3.60;;;;;;;8.69;51.11;100061.16;4346874;32;34545;-76
2022/04/15 01:33:14;;;;;;;7.07;3.50;;;;;;;8.69;51.05;100063.87;4369179;32;35038;-77
2022/04/15 01:36:06;;;;;;;8.68;3.20;;;;;;;8.42;51.46;100054.28;4379772;32;34664;-76
2022/04/15 01:38:57;;;;;;;7.05;3.47;;;;;;;8.44;52.07;100054.81;4373155;32;33998;-76
2022/04/15 01:41:44;;;;;;;7.50;3.53;;;;;;;8.53;51.80;100053.09;4373189;32;35273;-76
2022/04/15 01:44:30;;;;;;;6.97;3.75;;;;;;;8.44;51.63;100060.28;4372058;32;36060;-76
2022/04/15 01:47:16;;;;;;;8.48;4.35;;;;;;;6.92;55.58;100058.09;4349241;32;34358;-76
2022/04/15 01:50:05;;;;;;;6.40;3.15;;;;;;;7.59;54.62;100061.37;4366239;32;33971;-76
2022/04/15 01:52:51;;;;;;;7.62;3.55;;;;;;;8.17;52.48;100055.28;4363685;32;34659;-76
2022/04/15 01:55:37;;;;;;;9.75;3.25;;;;;;;8.14;52.55;100055.88;4371039;32;34848;-76
2022/04/15 01:58:24;;;;;;;6.43;2.78;;;;;;;8.18;50.69;100058.84;4356396;32;34337;-76
2022/04/15 02:01:10;;;;;;;6.65;3.28;;;;;;;8.04;50.77;100056.75;4357642;32;34407;-76
2022/04/15 02:03:56;;;;;;;7.32;3.05;;;;;;;7.96;50.80;100045.62;4356882;32;34484;-76
2022/04/15 02:06:42;;;;;;;7.75;3.37;;;;;;;7.99;50.54;100045.03;4359891;32;34531;-76
2022/04/15 02:09:29;;;;;;;6.47;3.12;;;;;;;7.85;50.88;100042.97;4356704;32;34765;-76
2022/04/15 02:12:15;;;;;;;6.85;2.75;;;;;;;7.29;53.19;100047.91;4367049;32;34064;-76
2022/04/15 02:15:03;;;;;;;5.68;2.80;;;;;;;7.29;54.41;100050.63;4358000;32;35558;-76
2022/04/15 02:17:49;;;;;;;6.90;2.85;;;;;;;7.78;52.92;100044.37;4363428;32;36119;-76
2022/04/15 02:20:35;;;;;;;6.90;3.03;;;;;;;7.58;53.57;100046.12;4374695;32;34684;-76
2022/04/15 02:23:22;;;;;;;8.13;3.30;;;;;;;7.95;52.41;100033.87;4347417;32;34253;-76
2022/04/15 02:26:08;;;;;;;7.32;3.25;;;;;;;7.98;52.43;100038.78;4359956;32;35577;-76
2022/04/15 02:28:54;;;;;;;8.30;3.55;;;;;;;7.65;53.26;100041.16;4359708;32;34828;-76
2022/04/15 02:31:40;;;;;;;8.10;4.07;;;;;;;7.51;54.90;100042.88;4359710;32;35590;-76
2022/04/15 02:34:26;;;;;;;9.60;3.60;;;;;;;7.45;55.08;100041.25;4359708;32;33909;-76
2022/04/15 02:37:12;;;;;;;6.53;3.03;;;;;;;7.05;53.64;100034.09;4362703;32;35312;-76
2022/04/15 02:39:58;;;;;;;7.93;3.60;;;;;;;7.19;54.05;100038.66;4374243;32;34604;-76
2022/04/15 02:42:45;;;;;;;6.70;3.20;;;;;;;7.63;53.29;100037.09;4369066;32;35574;-76
2022/04/15 02:45:37;;;;;;;8.27;3.47;;;;;;;7.99;52.14;100037.66;4359546;32;35046;-76
2022/04/15 02:48:23;;;;;;;8.35;3.87;;;;;;;7.88;52.09;100030.66;4359523;32;34290;-76
2022/04/15 02:51:09;;;;;;;9.35;3.15;;;;;;;8.27;50.42;100029.81;4359419;32;35018;-76
2022/04/15 02:53:55;;;;;;;11.75;3.97;;;;;;;7.96;50.72;100030.06;4366399;32;34610;-76
2022/04/15 02:56:41;;;;;;;6.82;2.80;;;;;;;7.03;53.87;100034.38;4371856;32;34472;-76
2022/04/15 02:59:27;;;;;;;9.15;4.40;;;;;;;7.27;55.28;100034.53;4359286;32;34157;-76
2022/04/15 03:02:15;;;;;;;8.05;3.72;;;;;;;7.76;54.27;100027.47;4359415;32;34628;-75
2022/04/15 03:05:03;;;;;;;6.43;3.20;;;;;;;7.68;53.86;100028.06;4371599;32;34417;-75
2022/04/15 03:07:49;;;;;;;7.07;3.50;;;;;;;7.63;52.96;100028.91;4359575;32;34150;-76
2022/04/15 03:10:36;;;;;;;7.65;3.70;;;;;;;7.55;53.34;100024.88;4365418;32;34342;-75
2022/04/15 03:13:22;;;;;;;7.15;3.55;;;;;;;7.35;54.64;100033.97;4362195;32;35042;-76
2022/04/15 03:16:09;;;;;;;11.05;3.40;;;;;;;7.34;54.77;100035.06;4370605;32;35554;-76
2022/04/15 03:18:55;;;;;;;6.35;3.15;;;;;;;6.88;55.94;100035.22;4365172;32;34876;-76
2022/04/15 03:21:42;;;;;;;7.87;3.28;;;;;;;7.21;55.76;100033.75;4379202;32;34772;-75
2022/04/15 03:24:27;;;;;;;8.35;3.97;;;;;;;7.62;54.21;100028.09;4364367;32;34537;-75
2022/04/15 03:27:14;;;;;;;8.73;4.53;;;;;;;7.44;55.33;100031.47;4357703;32;35208;-75
2022/04/15 03:30:00;;;;;;;9.45;4.43;;;;;;;7.55;54.86;100040.41;4358940;32;33969;-76
2022/04/15 03:32:50;;;;;;;9.38;4.37;;;;;;;7.31;55.35;100034.78;4356774;32;35509;-75
2022/04/15 03:35:36;;;;;;;10.63;4.00;;;;;;;7.40;54.64;100036.69;4362362;32;35619;-76
2022/04/15 03:38:23;;;;;;;8.82;3.83;;;;;;;7.48;53.91;100035.25;4358718;32;34195;-75
2022/04/15 03:41:09;;;;;;;9.60;3.90;;;;;;;7.40;54.09;100033.13;4358511;32;35111;-75
2022/04/15 03:43:55;;;;;;;10.52;3.65;;;;;;;7.47;53.85;100027.37;4358910;32;35595;-76
2022/04/15 03:46:41;;;;;;;9.57;3.58;;;;;;;7.59;53.42;100028.66;4357156;32;34977;-76
2022/04/15 03:49:27;;;;;;;8.55;3.80;;;;;;;7.62;52.65;100027.28;4350652;32;36350;-75
2022/04/15 03:52:13;;;;;;;6.28;3.60;;;;;;;7.84;53.58;100015.97;4367570;32;34306;-76
2022/04/15 03:54:59;;;;;;;7.50;3.20;;;;;;;7.77;53.73;100015.44;4358647;32;34512;-75
2022/04/15 03:57:46;;;;;;;7.82;3.87;;;;;;;7.72;53.44;100019.03;4358740;32;35031;-75
2022/04/15 04:00:33;;;;;;;7.60;3.30;;;;;;;7.69;53.74;100011.44;4360492;32;35342;-75
2022/04/15 04:03:20;;;;;;;6.85;3.65;;;;;;;7.68;54.11;100012.50;4358702;32;34172;-75
2022/04/15 04:06:07;;;;;;;6.75;3.67;;;;;;;7.55;54.57;100008.50;4358941;32;34636;-75
2022/04/15 04:08:53;;;;;;;11.27;4.05;;;;;;;7.64;54.79;100006.81;4363166;32;34690;-75
2022/04/15 04:11:39;;;;;;;7.68;4.37;;;;;;;5.30;62.80;100014.22;4373665;32;35486;-75
2022/04/15 04:14:26;;;;;;;12.60;5.93;;;;;;;5.17;65.71;100025.56;4346044;32;34266;-75
2022/04/15 04:17:11;;;;;;;12.70;6.97;;;;;;;6.32;60.92;100019.00;4357933;32;34727;-75
2022/04/15 04:19:58;;;;;;;12.82;7.37;;;;;;;6.25;60.90;100013.81;4357647;32;35943;-75
2022/04/15 04:22:45;;;;;;;11.75;4.90;;;;;;;6.97;58.67;100014.50;4359020;32;34720;-75
2022/04/15 04:25:31;;;;;;;7.12;4.28;;;;;;;7.07;57.40;100016.37;4370202;32;35041;-75
2022/04/15 04:28:18;;;;;;;8.48;4.12;;;;;;;7.07;56.75;100016.37;4366213;32;34269;-75
2022/04/15 04:31:04;;;;;;;10.25;3.78;;;;;;;7.25;56.74;100020.37;4358327;32;35063;-75
2022/04/15 04:33:50;;;;;;;9.32;4.18;;;;;;;7.34;56.58;100018.72;4357422;32;35456;-75
2022/04/15 04:36:37;;;;;;;11.57;4.30;;;;;;;5.92;61.67;100023.31;4363594;32;33797;-75
2022/04/15 04:39:25;;;;;;;9.13;3.92;;;;;;;6.33;61.42;100033.41;4361551;32;34546;-75
2022/04/15 04:42:12;;;;;;;9.32;5.00;;;;;;;7.03;59.06;100023.47;4372284;32;36712;-75
2022/04/15 04:44:58;;;;;;;9.73;4.35;;;;;;;7.04;59.19;100027.00;4356197;32;34520;-75
2022/04/15 04:47:46;;;;;;;7.90;4.32;;;;;;;7.53;58.00;100032.50;4363937;32;34428;-76
2022/04/15 04:50:32;;;;;;;8.38;4.07;;;;;;;7.39;58.50;100031.50;4347744;32;34690;-75
2022/04/15 04:53:19;;;;;;;9.10;4.40;;;;;;;6.82;58.00;100038.25;4367301;32;34740;-75
2022/04/15 04:56:05;;;;;;;7.50;4.22;;;;;;;7.38;56.78;100035.31;4358584;32;34604;-75
2022/04/15 04:58:51;;;;;;;8.55;3.97;;;;;;;7.96;56.13;100035.50;4368018;32;35079;-75
2022/04/15 05:01:37;;;;;;;7.80;3.60;;;;;;;7.86;56.52;100036.41;4370880;32;34820;-75
2022/04/15 05:04:24;;;;;;;6.97;3.47;;;;;;;7.63;55.08;100037.91;4367234;32;35881;-76
2022/04/15 05:07:10;;;;;;;9.30;3.87;;;;;;;8.06;54.58;100035.44;4359748;32;34637;-76
2022/04/15 05:09:56;;;;;;;6.47;3.17;;;;;;;8.36;54.34;100039.00;4369947;32;34211;-75
2022/04/15 05:12:42;;;;;;;9.05;3.45;;;;;;;8.40;54.07;100040.13;4347806;32;33499;-75
2022/04/15 05:15:28;;;;;;;7.75;3.33;;;;;;;7.71;52.74;100038.41;4368314;32;34597;-76
2022/04/15 05:18:15;;;;;;;8.65;3.80;;;;;;;6.56;57.23;100051.91;4358109;32;35484;-76
2022/04/15 05:21:02;;;;;;;9.50;3.75;;;;;;;5.75;59.67;100052.62;4367864;32;33726;-75
2022/04/15 05:23:48;;;;;;;10.80;4.37;;;;;;;5.90;60.10;100057.31;4369756;32;35209;-76
2022/04/15 05:26:35;;;;;;;9.43;4.18;;;;;;;6.39;59.70;100056.81;4368692;32;36031;-75
2022/04/15 05:29:21;;;;;;;10.35;4.80;;;;;;;7.27;56.75;100055.53;4369304;32;34779;-76
2022/04/15 05:32:08;;;;;;;8.63;4.70;;;;;;;7.81;55.46;100057.44;4361185;32;33808;-76
2022/04/15 05:34:53;;;;;;;11.12;4.93;;;;;;;8.42;54.72;100054.28;4362595;32;34403;-76
2022/04/15 05:37:40;;;;;;;14.13;4.95;;;;;;;8.80;54.05;100048.22;4361417;32;34513;-75
2022/04/15 05:40:27;;;;;;;8.88;5.10;;;;;;;8.95;53.06;100051.59;4359603;32;35665;-75
2022/04/15 05:43:15;;;;;;;11.77;6.20;;;;;;;9.13;53.24;100049.19;4369064;32;35319;-75
2022/04/15 05:46:01;;;;;;;14.25;6.68;;;;;;;8.78;54.21;100053.97;4366120;32;34590;-75
2022/04/15 05:48:47;;;;;;;12.05;6.25;;;;;;;8.39;55.06;100052.12;4359764;32;34619;-76
2022/04/15 05:51:33;;;;;;;18.05;6.97;;;;;;;9.29;52.95;100045.19;4368350;32;34320;-75
2022/04/15 05:54:19;;;;;;;14.87;7.87;;;;;;;9.78;52.56;100040.44;4365277;32;35091;-75
2022/04/15 05:57:06;;;;;;;18.08;9.18;;;;;;;9.89;52.96;100042.72;4366899;32;35131;-74
2022/04/15 05:59:52;;;;;;;19.02;8.20;;;;;;;9.70;53.95;100050.09;4351009;32;36019;-73
2022/04/15 06:02:38;;;;;;;14.05;8.02;;;;;;;10.35;52.81;100038.47;4367218;32;34262;-73
2022/04/15 06:05:27;;;;;;;15.20;8.20;;;;;;;10.26;52.24;100040.25;4356744;32;34259;-74
2022/04/15 06:08:13;;;;;;;18.60;7.40;;;;;;;9.58;53.32;100047.00;4359784;32;34769;-73
2022/04/15 06:10:59;;;;;;;11.50;5.55;;;;;;;8.50;56.24;100050.13;4357843;32;35072;-73
2022/04/15 06:13:47;;;;;;;12.63;5.47;;;;;;;8.76;56.42;100059.69;4356662;32;34516;-74
2022/04/15 06:16:37;;;;;;;10.88;5.05;;;;;;;9.42;54.40;100055.41;4358097;32;33917;-74
2022/04/15 06:19:23;;;;;;;20.88;6.18;;;;;;;9.36;53.21;100053.84;4354719;32;34653;-74
2022/04/15 06:22:10;;;;;;;10.93;5.32;;;;;;;10.14;51.73;100055.22;4347671;32;35925;-74
2022/04/15 06:24:57;;;;;;;12.43;5.50;;;;;;;11.03;48.33;100047.94;4363472;32;35143;-74
2022/04/15 06:27:43;;;;;;;16.50;6.07;;;;;;;11.11;47.11;100049.97;4366868;32;33863;-74
2022/04/15 06:30:29;;;;;;;13.68;5.35;;;;;;;10.35;50.04;100050.25;4356555;32;34510;-72
2022/04/15 06:33:17;;;;;;;11.18;5.53;;;;;;;10.50;48.84;100051.94;4358712;32;35013;-73
2022/04/15 06:36:04;;;;;;;10.43;5.78;;;;;;;10.71;47.56;100051.56;4347904;32;34840;-72
2022/04/15 06:38:51;;;;;;;9.88;5.40;;;;;;;11.35;45.40;100054.44;4358462;32;34367;-72
2022/04/15 06:41:36;;;;;;;9.57;5.15;;;;;;;11.98;43.70;100050.91;4360943;32;35289;-72
2022/04/15 06:44:23;;;;;;;12.82;5.75;;;;;;;12.36;42.08;100040.34;4367893;32;35898;-73
2022/04/15 06:47:09;;;;;;;10.98;5.50;;;;;;;12.70;42.32;100040.91;4363798;32;34694;-72
2022/04/15 06:49:56;;;;;;;11.95;6.10;;;;;;;13.30;42.38;100034.06;4359446;32;34201;-73
2022/04/15 06:52:41;;;;;;;10.73;5.95;;;;;;;13.28;42.42;100029.66;4357709;32;35591;-74
2022/04/15 06:55:28;;;;;;;13.68;6.82;;;;;;;13.73;42.38;100034.13;4362514;32;34702;-74
2022/04/15 06:58:13;;;;;;;10.70;5.90;;;;;;;13.95;42.28;100025.72;4356788;32;35336;-73
2022/04/15 07:00:59;;;;;;;14.85;6.45;;;;;;;13.27;43.38;100028.06;4358683;32;34183;-72
2022/04/15 07:03:46;;;;;;;12.77;6.57;;;;;;;13.12;43.75;100031.22;4358916;32;34742;-72
2022/04/15 07:06:32;;;;;;;10.35;5.70;;;;;;;13.09;44.45;100029.09;4359265;32;34505;-74
2022/04/15 07:09:18;;;;;;;9.68;5.22;;;;;;;13.34;44.69;100035.81;4368015;32;34236;-70
2022/04/15 07:12:05;;;;;;;11.38;4.90;;;;;;;14.23;43.84;100027.31;4363859;32;33975;-70
2022/04/15 07:14:51;;;;;;;14.93;6.03;;;;;;;14.03;43.41;100042.56;4359184;32;35645;-70
2022/04/15 07:17:37;;;;;;;12.20;5.93;;;;;;;14.04;40.95;100035.94;4358508;32;35023;-72
2022/04/15 07:20:23;;;;;;;9.93;6.00;;;;;;;14.35;36.57;100036.56;4358070;32;34602;-73
2022/04/15 07:23:09;;;;;;;10.50;5.30;;;;;;;14.49;38.21;100035.56;4357953;32;35038;-72
2022/04/15 07:25:55;;;;;;;10.38;5.37;;;;;;;14.75;38.66;100033.56;4358867;32;35651;-72
2022/04/15 07:28:41;;;;;;;11.65;5.90;;;;;;;14.66;37.11;100043.84;4366934;32;34673;-72
2022/04/15 07:31:28;;;;;;;14.20;5.47;;;;;;;14.83;36.59;100040.22;4369807;32;34403;-71
2022/04/15 07:34:14;;;;;;;10.52;5.72;;;;;;;14.94;36.03;100038.72;4360461;32;35506;-72
2022/04/15 07:37:03;;;;;;;11.38;5.57;;;;;;;14.95;34.76;100042.28;4359393;32;35505;-72
2022/04/15 07:39:49;;;;;;;12.07;5.15;;;;;;;14.42;37.04;100041.56;4371679;32;35035;-71
2022/04/15 07:42:35;;;;;;;9.63;4.72;;;;;;;14.80;38.17;100040.87;4360089;32;34546;-71
2022/04/15 07:45:22;;;;;;;11.70;5.65;;;;;;;15.38;36.99;100049.56;4360006;32;34118;-71
2022/04/15 07:48:08;;;;;;;9.02;4.82;;;;;;;15.57;36.89;100052.69;4361928;32;34655;-71
2022/04/15 07:50:56;;;;;;;14.50;5.90;;;;;;;15.89;36.58;100051.19;4368630;32;34603;-79
2022/04/15 07:53:42;;;;;;;9.85;5.10;;;;;;;15.65;34.42;100065.66;4361542;32;34683;-80
2022/04/15 07:56:29;;;;;;;12.23;5.75;;;;;;;15.43;35.25;100068.69;4369526;32;33673;-80
2022/04/15 07:59:14;;;;;;;13.57;5.72;;;;;;;15.72;35.34;100068.69;4365907;32;34647;-80
2022/04/15 08:02:06;;;;;;;10.68;4.75;;;;;;;15.80;33.83;100069.00;4364921;32;35078;-80
2022/04/15 08:04:52;;;;;;;;;;;;;;;15.47;32.67;100073.19;4361944;32;34584;-79
2022/04/15 08:07:38;;;;;;;8.50;4.53;;;;;;;16.08;32.41;100064.56;4360031;32;34691;-80
2022/04/15 08:10:25;;;;;;;8.45;4.60;;;;;;;15.90;31.51;100076.88;4363073;32;34705;-79
2022/04/15 08:13:11;;;;;;;8.57;4.12;;;;;;;16.03;31.65;100069.47;4379036;32;35021;-79
2022/04/15 08:15:58;;;;;;;14.15;4.60;;;;;;;16.22;31.25;100066.22;4368960;32;35087;-79
2022/04/15 08:18:45;;;;;;;9.35;4.32;;;;;;;16.45;30.50;100070.25;4366226;32;34158;-82
2022/04/15 08:21:32;;;;;;;10.73;5.60;;;;;;;16.18;30.73;100061.37;4371318;32;34730;-79
2022/04/15 08:24:17;;;;;;;10.75;5.22;;;;;;;16.39;30.88;100055.00;4363019;32;35077;-79
2022/04/15 08:27:04;;;;;;;11.05;5.18;;;;;;;16.69;30.89;100063.19;4367083;32;35693;-79
2022/04/15 08:29:50;;;;;;;9.90;5.72;;;;;;;16.75;30.74;100050.75;4364652;32;35213;-81
2022/04/15 08:32:37;;;;;;;12.73;5.50;;;;;;;16.79;30.30;100062.75;4367952;32;34611;-79
2022/04/15 08:35:27;;;;;;;10.85;5.45;;;;;;;16.96;31.14;100059.81;4362232;32;34967;-80
2022/04/15 08:38:13;;;;;;;13.18;6.35;;;;;;;17.02;30.08;100063.97;4364585;32;34264;-80
2022/04/15 08:40:59;;;;;;;10.80;5.80;;;;;;;16.55;30.52;100061.50;4369654;32;34261;-79
2022/04/15 08:43:46;;;;;;;11.48;5.82;;;;;;;16.49;31.36;100054.59;4373921;32;34594;-80
2022/04/15 08:46:32;;;;;;;10.98;5.62;;;;;;;16.66;29.93;100058.34;4367594;32;34927;-83
2022/04/15 08:49:19;;;;;;;12.90;6.20;;;;;;;16.79;30.02;100052.53;4363744;32;34271;-81
2022/04/15 08:52:05;;;;;;;11.20;6.05;;;;;;;16.71;30.47;100049.81;4365358;32;34280;-81
2022/04/15 08:54:52;;;;;;;14.68;6.62;;;;;;;16.88;30.70;100052.41;4366638;32;34704;-81
2022/04/15 08:57:38;;;;;;;13.13;7.25;;;;;;;16.99;31.66;100047.22;4363768;32;34846;-81
2022/04/15 09:00:25;;;;;;;12.63;6.85;;;;;;;17.01;30.34;100039.41;4350723;32;34201;-82
2022/04/15 09:03:11;;;;;;;12.35;7.20;;;;;;;17.22;30.37;100042.88;4366124;32;34201;-82
2022/04/15 09:05:58;;;;;;;15.55;6.80;;;;;;;17.51;30.96;100047.37;4368217;32;34283;-81
2022/04/15 09:09:08;;;;;;;13.50;7.32;;;;;;;18.39;30.41;100055.94;4362789;32;34954;-82
2022/04/15 09:11:56;;;;;;;13.45;6.87;;;;;;;18.04;29.99;100054.91;4373267;32;34572;-81
2022/04/15 09:14:45;;;;;;;12.68;6.30;;;;;;;18.07;30.38;100040.34;4358692;32;33727;-82
2022/04/15 09:17:54;;;;;;;15.23;7.07;;;;;;;18.25;29.85;100038.09;4369232;32;34644;-83
2022/04/15 09:20:41;;;;;;;11.38;6.53;;;;;;;17.64;30.56;100037.06;4365285;32;36136;-79
2022/04/15 09:23:27;;;;;;;11.63;5.93;;;;;;;17.64;30.68;100031.53;4368200;32;34871;-79
2022/04/15 09:26:14;;;;;;;14.02;6.00;;;;;;;18.17;29.27;100032.34;4366320;32;34356;-79
2022/04/15 09:29:00;;;;;;;10.60;4.43;;;;;;;18.35;29.64;100034.81;4361960;32;35308;-81
2022/04/15 09:31:47;;;;;;;9.63;5.00;;;;;;;18.17;29.52;100037.09;4366267;32;35961;-79
2022/04/15 09:34:33;;;;;;;10.68;4.47;;;;;;;18.03;30.36;100029.16;4368178;32;34340;-80
2022/04/15 09:37:34;;;;;;;10.60;4.87;;;;;;;17.73;29.67;100039.69;4368446;32;34276;-81
2022/04/15 09:40:25;;;;;;;13.43;4.93;;;;;;;17.27;30.76;100027.97;4371152;32;34661;-79
2022/04/15 09:43:11;;;;;;;8.82;4.93;;;;;;;16.80;32.12;100037.53;4365279;32;35162;-76
2022/04/15 09:46:08;;;;;;;11.35;5.18;;;;;;;16.90;32.76;100041.00;4367171;32;35195;-77
2022/04/15 09:49:06;;;;;;;11.45;5.68;;;;;;;17.20;32.62;100039.63;4361067;32;34280;-77
2022/04/15 09:51:54;;;;;;;11.00;5.80;;;;;;;16.55;33.61;100036.63;4372534;32;35269;-76
2022/04/15 09:54:40;;;;;;;12.27;5.18;;;;;;;16.85;33.05;100028.19;4372658;32;36153;-76
2022/04/15 09:57:33;;;;;;;10.93;5.18;;;;;;;17.05;32.06;100027.28;4364944;32;35507;-76
2022/04/15 10:00:19;;;;;;;9.57;4.93;;;;;;;16.78;32.79;100022.41;4346672;32;34199;-76
2022/04/15 10:03:08;;;;;;;7.78;4.25;;;;;;;16.75;32.04;100020.31;4362795;32;34675;-76
2022/04/15 10:05:56;;;;;;;10.15;5.05;;;;;;;17.32;31.01;100019.44;4357516;32;35897;-77
2022/04/15 10:08:43;;;;;;;12.82;4.72;;;;;;;16.79;31.48;100007.41;4346247;32;35019;-76
2022/04/15 10:11:34;;;;;;;8.45;4.05;;;;;;;17.07;31.39;100011.13;4363796;32;34154;-76
2022/04/15 10:14:21;;;;;;;10.70;3.97;;;;;;;17.69;29.93;100011.09;4361437;32;34721;-76
2022/04/15 10:17:08;;;;;;;7.65;3.70;;;;;;;17.81;30.09;100008.31;4361063;32;35111;-77
2022/04/15 10:19:54;;;;;;;7.60;2.92;;;;;;;18.11;30.46;100008.81;4356251;32;35806;-76
2022/04/15 10:22:40;;;;;;;9.40;3.67;;;;;;;18.30;27.89;100013.69;4356904;32;34731;-76
2022/04/15 10:25:27;;;;;;;7.47;2.83;;;;;;;18.96;29.93;100017.84;4355580;32;34690;-78
2022/04/15 10:28:17;;;;;;;8.15;3.53;;;;;;;19.49;25.55;100012.75;4369887;32;35692;-77
2022/04/15 10:31:08;;;;;;;10.02;3.65;;;;;;;19.21;25.73;100012.91;4358556;32;35139;-76
2022/04/15 10:34:17;;;;;;;7.53;3.42;;;;;;;19.01;25.98;100025.06;4359921;32;34139;-76
2022/04/15 10:37:04;;;;;;;7.55;3.28;;;;;;;19.42;25.10;100022.91;4360679;32;34531;-76
2022/04/15 10:39:51;;;;;;;8.93;4.53;;;;;;;18.82;25.97;100029.38;4368441;32;34917;-76
2022/04/15 10:42:43;;;;;;;7.78;3.53;;;;;;;19.03;26.21;100029.12;4364353;32;36062;-77
2022/04/15 10:45:34;;;;;;;9.80;4.20;;;;;;;19.32;26.33;100036.19;4359614;32;34742;-78
2022/04/15 10:48:31;;;;;;;9.25;4.50;;;;;;;18.69;28.23;100047.25;4348181;32;35658;-78
2022/04/15 10:51:24;;;;;;;11.32;4.62;;;;;;;17.97;30.34;100036.13;4356647;32;34505;-76
2022/04/15 10:54:35;;;;;;;7.95;4.55;;;;;;;17.85;31.97;100042.50;4374508;32;34630;-76
2022/04/15 10:57:22;;;;;;;7.87;4.30;;;;;;;17.62;31.46;100027.50;4362124;32;35067;-74
2022/04/15 11:03:26;;;;;;;11.55;4.55;;;;;;;17.77;31.44;100024.81;4359810;32;35949;-75
2022/04/15 11:06:17;;;;;;;;;;;;;;;18.32;30.43;100027.19;4367991;32;34345;-74
2022/04/15 11:09:22;;;;;;;9.02;4.87;;;;;;;18.28;30.24;100027.09;4349604;32;33558;-73
2022/04/15 11:12:09;;;;;;;10.95;5.30;;;;;;;17.64;31.16;100033.50;4361092;32;34287;-73
2022/04/15 11:14:55;;;;;;;6.68;3.70;;;;;;;17.89;31.37;100028.75;4347913;32;36009;-74
2022/04/15 11:17:46;;;;;;;8.73;4.57;;;;;;;17.76;32.63;100025.19;4362108;32;34872;-75
2022/04/15 11:20:32;;;;;;;13.73;4.70;;;;;;;17.80;31.94;100028.06;4369853;32;34375;-74
2022/04/15 11:23:19;;;;;;;10.93;5.25;;;;;;;17.21;33.67;100029.38;4379605;32;34711;-74
2022/04/15 11:26:06;;;;;;;12.07;5.65;;;;;;;16.83;34.55;100041.56;4365825;32;35963;-74
2022/04/15 11:28:54;;;;;;;10.77;5.05;;;;;;;16.84;35.02;100048.72;4359163;32;34618;-75
2022/04/15 11:31:42;;;;;;;12.15;5.37;;;;;;;17.21;33.82;100046.78;4365286;32;35091;-75
2022/04/15 11:34:28;;;;;;;13.10;6.10;;;;;;;16.73;33.94;100041.97;4362455;32;34326;-73
2022/04/15 11:37:14;;;;;;;12.30;5.53;;;;;;;16.57;35.12;100052.88;4373892;32;34584;-74
2022/04/15 11:40:01;;;;;;;12.07;5.15;;;;;;;16.63;35.04;100049.56;4349770;32;34708;-73
2022/04/15 11:42:47;;;;;;;11.85;4.53;;;;;;;16.89;33.85;100045.72;4361456;32;35062;-74
2022/04/15 11:45:35;;;;;;;12.50;4.90;;;;;;;16.84;33.73;100051.47;4358603;32;34539;-73
2022/04/15 11:48:25;;;;;;;9.77;4.72;;;;;;;16.82;33.72;100045.47;4357798;32;35183;-75
2022/04/15 11:51:12;;;;;;;12.30;5.85;;;;;;;17.06;33.71;100062.12;4366616;32;34747;-74
2022/04/15 11:53:59;;;;;;;9.75;5.87;;;;;;;16.83;34.55;100058.16;4362936;32;33754;-74
2022/04/15 11:56:46;;;;;;;11.07;5.87;;;;;;;16.86;34.52;100058.28;4359745;32;34609;-74
2022/04/15 11:59:39;;;;;;;8.93;5.05;;;;;;;16.71;34.82;100069.19;4357246;32;34532;-73
2022/04/15 12:02:26;;;;;;;11.98;5.12;;;;;;;16.75;35.94;100073.69;4359882;32;34665;-73
2022/04/15 12:05:13;;;;;;;12.00;6.10;;;;;;;16.22;37.60;100094.66;4370677;32;35049;-73
2022/04/15 12:07:59;;;;;;;12.77;5.18;;;;;;;16.09;37.08;100099.34;4360107;32;34632;-75
2022/04/15 12:10:49;;;;;;;9.10;4.82;;;;;;;16.13;37.94;100091.16;4362328;32;34048;-75
2022/04/15 12:13:35;;;;;;;10.48;5.22;;;;;;;16.25;38.40;100082.97;4347338;32;35707;-74
2022/04/15 12:16:21;;;;;;;12.18;5.10;;;;;;;15.83;40.87;100099.53;4367783;32;34474;-75
2022/04/15 12:19:08;;;;;;;11.48;5.00;;;;;;;15.25;42.83;100085.34;4361950;32;35184;-74
2022/04/15 12:21:54;;;;;;;9.63;5.12;;;;;;;14.92;46.98;100087.09;4356299;32;35064;-75
2022/04/15 12:24:40;;;;;;;10.32;5.87;;;;;;;14.67;49.88;100074.97;4362981;32;34804;-75
2022/04/15 12:27:33;;;;;;;11.52;6.90;;;;;;;14.10;52.94;100067.69;4358406;32;34218;-75
2022/04/15 12:30:51;;;;;;;11.43;6.10;;;;;;;13.62;57.99;100074.13;4370434;32;34613;-75
2022/04/15 12:33:46;;;;;;;11.30;5.55;;;;;;;13.64;58.75;100078.19;4357834;32;34544;-75
2022/04/15 12:36:42;;;;;;;12.25;6.00;;;;;;;13.82;60.55;100079.00;4364060;32;35577;-75
2022/04/15 12:39:31;;;;;;;14.63;6.43;;;;;;;13.65;62.02;100067.97;4356808;32;146159;-75
2022/04/15 12:42:28;;;;;;;12.18;5.93;;;;;;;13.53;65.98;100065.03;4360732;32;34360;-74
2022/04/15 12:45:16;;;;;;;13.10;6.87;;;;;;;13.14;67.54;100085.91;4358596;32;37187;-75
2022/04/15 12:48:05;;;;;;;13.43;6.93;;;;;;;12.49;71.45;100088.13;4365357;32;34224;-75
2022/04/15 12:50:54;;;;;;;12.75;6.65;;;;;;;12.75;73.55;100085.56;4370856;32;34283;-76
2022/04/15 12:53:41;;;;;;;14.55;6.80;;;;;;;12.34;76.54;100096.75;4373402;32;35741;-75
2022/04/15 12:56:26;;;;;;;13.62;6.97;;;;;;;12.83;75.81;100084.81;4362460;32;34992;-76
2022/04/15 12:59:12;;;;;;;15.82;8.32;;;;;;;13.82;71.11;100070.75;4357083;32;34826;-76
2022/04/15 13:13:13;;;;;;;15.32;8.63;;;;;;;13.83;69.60;100063.28;4491242;31;38894;-73
2022/04/15 13:16:00;;;;;;;17.80;8.98;;;;;;;13.83;69.60;100063.28;4475881;32;33957;-74